CMB830 Details

Departure: Keflavík International Airport (BIKF)
Arrival: Joint Base McGuire Dix Lakehurst (KWRI)
Route: RALOV1D RALOV RAKIS 6235N N6040 5944N 5650N YAY J580 YQY YQI J585 ACK J62 RIFLE J174 EMJAY HEADI
Notes: USTRANSCOM CONTRACT FLIGHT


Current Weather Information
BIKF 261000Z 24022G33KT 9999 -SHRA FEW020CB SCT036 BKN047 04/00 Q1009
KWRI 260956Z AUTO 35010KT 10SM CLR 00/M13 A3014 RMK AO2 SLP207 T00011126 $